Time;durP1;ratioP1;P1;durP2;ratioP2;P2;SDS_P1;SDS_P2;PMS_P1;PMS_P2;Temp;Humidity;BMP_temperature;BMP_pressure;BME280_temperature;BME280_humidity;BME280_pressure;Samples;Min_cycle;Max_cycle;Signal;HPM_P1;HPM_P2
2022/10/23 00:00:53;;;;;;;5.93;2.90;;;;;;;14.15;54.45;99351.28;5136635;27;20167;-91
2022/10/23 00:03:19;;;;;;;7.80;2.70;;;;;;;14.07;55.21;99353.56;5118477;27;20644;-90
2022/10/23 00:05:44;;;;;;;7.37;3.50;;;;;;;14.14;55.28;99354.91;5118463;27;20262;-90
2022/10/23 00:08:09;;;;;;;9.70;2.87;;;;;;;14.30;54.83;99364.44;5136520;27;20174;-91
2022/10/23 00:10:39;;;;;;;9.63;3.57;;;;;;;14.35;54.13;99362.41;5118663;27;20257;-90
2022/10/23 00:13:04;;;;;;;5.77;2.77;;;;;;;14.30;54.29;99364.44;5136652;27;20182;-90
2022/10/23 00:15:30;;;;;;;6.10;3.07;;;;;;;14.29;53.83;99362.75;5136337;27;20189;-91
2022/10/23 00:17:55;;;;;;;9.53;3.57;;;;;;;14.17;54.37;99361.75;5136240;27;20191;-90
2022/10/23 00:20:21;;;;;;;9.07;2.57;;;;;;;14.02;54.56;99355.66;5118479;27;20183;-91
2022/10/23 00:22:46;;;;;;;7.50;2.80;;;;;;;14.03;55.02;99357.34;5136215;27;20181;-90
2022/10/23 00:25:12;;;;;;;6.53;2.70;;;;;;;14.04;54.47;99364.34;5118438;27;20213;-91
2022/10/23 00:27:37;;;;;;;8.17;2.77;;;;;;;14.05;54.31;99360.72;5136127;27;20250;-91
2022/10/23 00:30:04;;;;;;;10.27;3.20;;;;;;;14.11;54.28;99354.22;5136122;27;20178;-90
2022/10/23 00:32:30;;;;;;;4.90;2.40;;;;;;;14.06;55.24;99359.81;5118189;27;20171;-91
2022/10/23 00:34:55;;;;;;;5.50;2.93;;;;;;;13.86;55.58;99344.38;5117842;27;20254;-91
2022/10/23 00:37:20;;;;;;;5.07;2.70;;;;;;;13.78;56.04;99340.53;5117727;27;20211;-91
2022/10/23 00:39:46;;;;;;;7.13;3.07;;;;;;;13.74;56.03;99337.25;5117778;27;20185;-90
2022/10/23 00:42:16;;;;;;;6.27;3.07;;;;;;;13.71;56.55;99340.06;5117707;27;20186;-90
2022/10/23 00:44:41;;;;;;;6.67;2.80;;;;;;;13.76;56.13;99338.00;5117685;27;20174;-90
2022/10/23 00:47:07;;;;;;;7.67;3.60;;;;;;;13.72;56.55;99335.66;5117905;27;20262;-90
2022/10/23 00:49:33;;;;;;;7.07;2.87;;;;;;;13.77;56.56;99331.78;5117592;27;20175;-90
2022/10/23 00:52:03;;;;;;;6.80;3.47;;;;;;;13.88;56.44;99331.97;5135661;27;20626;-91
2022/10/23 00:54:35;;;;;;;7.03;3.03;;;;;;;13.77;56.91;99330.94;5135877;27;20163;-91
2022/10/23 00:57:04;;;;;;;5.27;3.00;;;;;;;13.64;57.72;99330.00;5117360;27;20320;-91
2022/10/23 00:59:30;;;;;;;6.17;2.80;;;;;;;13.63;57.82;99329.16;5117347;27;20193;-90
2022/10/23 01:01:57;;;;;;;11.10;3.73;;;;;;;13.60;57.87;99316.16;5117657;27;20208;-91
2022/10/23 01:04:23;;;;;;;6.83;2.93;;;;;;;13.59;58.52;99318.91;5117112;28;20524;-91
2022/10/23 01:07:08;;;;;;;6.27;3.17;;;;;;;13.77;57.84;99329.16;5135195;27;20159;-91
2022/10/23 01:09:58;;;;;;;9.93;3.43;;;;;;;13.90;57.10;99322.19;5117176;27;20227;-91
2022/10/23 01:12:27;;;;;;;15.23;3.47;;;;;;;13.82;57.13;99311.28;5117151;27;20167;-91
2022/10/23 01:15:15;;;;;;;6.97;2.87;;;;;;;13.78;57.17;99308.94;5117026;27;20705;-91
2022/10/23 01:17:47;;;;;;;15.00;3.10;;;;;;;13.84;56.38;99288.31;5117840;27;20197;-91
2022/10/23 01:20:44;;;;;;;7.93;3.50;;;;;;;13.84;56.44;99285.66;5117016;27;20174;-91
2022/10/23 01:23:22;;;;;;;5.53;2.60;;;;;;;13.93;56.10;99286.88;5135294;27;20165;-90
2022/10/23 01:26:12;;;;;;;6.47;3.47;;;;;;;14.06;55.74;99290.41;5116911;27;20169;-91
2022/10/23 01:28:53;;;;;;;5.83;3.30;;;;;;;14.10;55.36;99311.19;5117143;27;20274;-90
2022/10/23 01:31:41;;;;;;;5.47;3.10;;;;;;;14.10;54.67;99321.75;5135115;27;20196;-91
2022/10/23 01:34:20;;;;;;;6.00;3.27;;;;;;;14.16;54.80;99324.00;5116717;27;20559;-90
2022/10/23 01:36:49;;;;;;;11.47;2.83;;;;;;;13.99;55.58;99318.94;5135040;27;20194;-91
2022/10/23 01:39:23;;;;;;;7.67;2.93;;;;;;;13.80;56.36;99305.25;5116660;27;20631;-90
2022/10/23 01:42:09;;;;;;;7.00;3.50;;;;;;;13.62;57.41;99301.16;5116576;27;20239;-90
2022/10/23 01:44:40;;;;;;;7.80;3.10;;;;;;;13.60;58.28;99294.28;5116569;27;20166;-91
2022/10/23 01:47:08;;;;;;;7.90;3.67;;;;;;;13.62;58.66;99293.25;5116524;27;20181;-91
2022/10/23 01:49:38;;;;;;;10.67;4.10;;;;;;;13.83;57.83;99307.72;5116393;27;20181;-91
2022/10/23 01:52:07;;;;;;;8.43;3.70;;;;;;;13.88;57.46;99305.63;5116682;27;20223;-90
2022/10/23 01:54:38;;;;;;;11.20;4.17;;;;;;;13.87;57.99;99296.00;5116384;27;20216;-90
2022/10/23 01:57:06;;;;;;;8.50;4.03;;;;;;;13.97;57.67;99312.94;5117177;27;20344;-90
2022/10/23 01:59:40;;;;;;;11.00;3.73;;;;;;;14.07;57.26;99314.03;5116343;27;20182;-91
2022/10/23 02:02:06;;;;;;;7.80;4.17;;;;;;;14.12;56.90;99309.31;5117357;27;20545;-90
2022/10/23 02:04:39;;;;;;;9.20;3.37;;;;;;;14.02;57.54;99304.72;5116211;27;20178;-91
2022/10/23 02:07:05;;;;;;;6.20;2.87;;;;;;;14.15;57.21;99297.72;5134664;27;20603;-91
2022/10/23 02:09:31;;;;;;;5.40;3.00;;;;;;;14.24;56.64;99285.75;5116140;27;20177;-90
2022/10/23 02:12:37;;;;;;;6.53;3.63;;;;;;;14.26;56.32;99291.75;5134230;27;20691;-91
2022/10/23 02:15:13;;;;;;;5.90;2.43;;;;;;;14.11;56.45;99291.81;5076383;27;20222;-91
2022/10/23 02:17:59;;;;;;;8.60;3.40;;;;;;;14.07;56.08;99305.31;5115121;27;20197;-91
2022/10/23 02:20:42;;;;;;;5.93;3.17;;;;;;;13.94;54.05;99294.66;5134348;27;20197;-91
2022/10/23 02:23:29;;;;;;;10.03;3.63;;;;;;;13.79;54.41;99295.66;5134632;27;20324;-91
2022/10/23 02:26:21;;;;;;;8.67;4.10;;;;;;;13.64;53.65;99291.34;5134863;27;20167;-91
2022/10/23 02:28:51;;;;;;;9.90;3.27;;;;;;;13.65;53.52;99308.84;5107137;28;20561;-90
2022/10/23 02:31:20;;;;;;;8.40;3.70;;;;;;;13.78;53.58;99301.03;5134287;28;20254;-91
2022/10/23 02:33:46;;;;;;;12.73;3.43;;;;;;;13.89;53.14;99315.19;5134027;28;20184;-91
2022/10/23 02:36:12;;;;;;;6.20;3.57;;;;;;;13.99;52.41;99324.22;5134116;28;20238;-90
2022/10/23 02:38:40;;;;;;;8.17;3.43;;;;;;;13.99;52.54;99332.13;5116586;28;20196;-91
2022/10/23 02:41:12;;;;;;;6.63;3.17;;;;;;;13.90;53.04;99327.44;5134309;28;20186;-91
2022/10/23 02:43:48;;;;;;;6.43;3.00;;;;;;;13.83;53.16;99328.78;5115802;28;20187;-90
2022/10/23 02:46:37;;;;;;;8.40;3.53;;;;;;;13.97;52.90;99331.38;5116102;28;20579;-91
2022/10/23 02:49:14;;;;;;;7.43;3.87;;;;;;;14.07;52.56;99343.03;5121594;28;20264;-90
2022/10/23 02:52:07;;;;;;;7.40;3.70;;;;;;;14.03;52.80;99338.91;5133939;28;20193;-91
2022/10/23 02:54:55;;;;;;;6.00;2.90;;;;;;;14.11;53.14;99338.41;5134065;28;20175;-90
2022/10/23 02:57:23;;;;;;;5.47;2.90;;;;;;;14.02;53.66;99331.94;5104743;28;20612;-91
2022/10/23 03:00:12;;;;;;;5.73;3.00;;;;;;;14.04;53.96;99337.97;5115568;28;20284;-91
2022/10/23 03:02:45;;;;;;;7.60;3.47;;;;;;;13.98;53.77;99337.50;5133702;28;20177;-91
2022/10/23 03:05:15;;;;;;;9.10;3.67;;;;;;;14.07;54.09;99334.28;5115848;28;20177;-92
2022/10/23 03:07:41;;;;;;;7.63;2.87;;;;;;;14.10;53.68;99334.94;5133940;28;20551;-90
2022/10/23 03:10:08;;;;;;;9.27;2.93;;;;;;;14.08;54.13;99350.00;5115538;28;20167;-91
2022/10/23 03:12:34;;;;;;;10.70;3.27;;;;;;;14.12;54.43;99351.47;5115474;28;20209;-91
2022/10/23 03:14:59;;;;;;;6.03;3.23;;;;;;;14.11;54.82;99349.81;5115736;28;20177;-91
2022/10/23 03:17:24;;;;;;;5.60;2.90;;;;;;;14.18;54.46;99358.16;5115689;28;20198;-90
2022/10/23 03:19:50;;;;;;;6.17;2.80;;;;;;;14.09;54.58;99362.25;5115782;28;20249;-91
2022/10/23 03:22:16;;;;;;;8.57;3.97;;;;;;;14.05;54.70;99360.72;5115749;28;20189;-91
2022/10/23 03:24:41;;;;;;;5.70;3.00;;;;;;;14.05;54.80;99355.47;5115412;28;20281;-91
2022/10/23 03:27:07;;;;;;;4.83;3.30;;;;;;;13.99;56.10;99357.66;5116508;28;20206;-91
2022/10/23 03:29:32;;;;;;;9.37;4.03;;;;;;;14.10;55.45;99363.91;5136868;27;20174;-90
2022/10/23 03:31:58;;;;;;;6.63;3.67;;;;;;;14.02;56.67;99370.59;5119121;27;20220;-91
2022/10/23 03:34:23;;;;;;;18.97;4.57;;;;;;;13.98;57.15;99362.06;5137420;27;20321;-90
2022/10/23 03:36:48;;;;;;;8.10;3.87;;;;;;;14.00;57.01;99360.19;5137058;27;20195;-90
2022/10/23 03:39:15;;;;;;;7.00;3.63;;;;;;;13.91;56.45;99350.22;5137086;27;20178;-91
2022/10/23 03:41:40;;;;;;;6.00;3.10;;;;;;;14.00;56.00;99377.78;5119765;27;20174;-90
2022/10/23 03:44:05;;;;;;;7.40;3.43;;;;;;;14.00;55.89;99381.25;5119431;27;20188;-91
2022/10/23 03:46:31;;;;;;;12.40;4.00;;;;;;;13.87;56.04;99377.69;5119199;27;20178;-91
2022/10/23 03:48:57;;;;;;;10.03;3.53;;;;;;;13.86;55.94;99383.91;5119652;27;20630;-90
2022/10/23 03:51:23;;;;;;;5.03;2.80;;;;;;;13.87;56.14;99382.97;5137238;27;20264;-91
2022/10/23 03:53:48;;;;;;;6.83;4.00;;;;;;;13.97;55.49;99386.72;5137326;27;20182;-90
2022/10/23 03:56:14;;;;;;;8.40;3.67;;;;;;;14.04;55.31;99382.78;5118654;27;20246;-90
2022/10/23 03:58:39;;;;;;;7.73;3.50;;;;;;;14.15;55.21;99388.19;5136990;27;20185;-91
2022/10/23 04:01:05;;;;;;;10.20;4.30;;;;;;;14.13;55.57;99389.25;5118594;27;20175;-91
2022/10/23 04:03:30;;;;;;;10.93;3.67;;;;;;;14.03;55.96;99388.97;5118576;27;20687;-91
2022/10/23 04:05:55;;;;;;;13.27;4.63;;;;;;;13.99;55.86;99386.66;5118795;27;20623;-91
2022/10/23 04:08:21;;;;;;;6.47;3.50;;;;;;;14.00;56.06;99397.06;5136515;27;20671;-91
2022/10/23 04:10:46;;;;;;;11.53;4.20;;;;;;;13.88;56.55;99391.72;5118414;27;20185;-91
2022/10/23 04:13:12;;;;;;;7.13;3.87;;;;;;;13.87;56.57;99397.94;5118292;27;20183;-91
2022/10/23 04:15:37;;;;;;;9.13;4.57;;;;;;;13.84;56.86;99403.38;5118606;27;20170;-91
2022/10/23 04:18:03;;;;;;;8.50;4.03;;;;;;;13.81;56.63;99407.06;5118511;27;20205;-91
2022/10/23 04:20:28;;;;;;;7.90;3.30;;;;;;;13.54;57.04;99409.59;5118969;27;20261;-91
2022/10/23 04:22:54;;;;;;;6.80;4.17;;;;;;;13.52;57.37;99397.47;5136238;27;20572;-91
2022/10/23 04:25:19;;;;;;;6.80;4.00;;;;;;;13.59;56.75;99395.28;5136202;27;20178;-91
2022/10/23 04:27:45;;;;;;;8.00;4.03;;;;;;;13.55;56.80;99402.53;5118010;27;20656;-91
2022/10/23 04:30:11;;;;;;;9.07;4.23;;;;;;;13.54;57.00;99392.94;5136116;27;20173;-91
2022/10/23 04:32:36;;;;;;;10.80;4.60;;;;;;;13.68;56.38;99386.84;5136307;27;20172;-91
2022/10/23 04:35:02;;;;;;;9.17;4.90;;;;;;;13.75;56.49;99388.16;5117886;27;20735;-91
2022/10/23 04:37:27;;;;;;;4.87;3.30;;;;;;;13.84;56.59;99392.84;5117757;27;20204;-91
2022/10/23 04:39:53;;;;;;;7.80;3.70;;;;;;;13.79;57.26;99393.13;5116783;27;20181;-90
2022/10/23 04:42:18;;;;;;;8.33;3.63;;;;;;;13.81;57.37;99388.59;5135863;27;20583;-91
2022/10/23 04:44:43;;;;;;;9.67;3.90;;;;;;;13.87;57.54;99390.03;5135785;27;20691;-91
2022/10/23 04:47:09;;;;;;;9.87;3.77;;;;;;;13.91;57.38;99384.50;5118239;27;20176;-90
2022/10/23 04:49:34;;;;;;;10.17;4.33;;;;;;;13.89;57.69;99383.72;5135750;27;20182;-91
2022/10/23 04:52:00;;;;;;;8.10;3.83;;;;;;;13.93;57.49;99379.97;5117706;27;20195;-91
2022/10/23 04:54:25;;;;;;;10.87;4.50;;;;;;;14.00;57.35;99393.59;5135604;27;20238;-91
2022/10/23 04:56:51;;;;;;;10.57;5.00;;;;;;;14.12;57.40;99404.19;5117385;27;20301;-91
2022/10/23 04:59:16;;;;;;;13.17;4.43;;;;;;;14.10;57.43;99392.91;5135542;27;20181;-91
2022/10/23 05:01:42;;;;;;;10.03;4.60;;;;;;;14.05;58.06;99396.78;5117666;27;20175;-91
2022/10/23 05:04:07;;;;;;;8.47;4.27;;;;;;;14.04;58.23;99393.31;5135421;27;20178;-91
2022/10/23 05:06:32;;;;;;;11.03;4.37;;;;;;;14.06;57.78;99411.66;5117285;27;20167;-91
2022/10/23 05:08:58;;;;;;;10.10;3.93;;;;;;;14.11;57.43;99402.53;5117236;27;20185;-90
2022/10/23 05:11:23;;;;;;;11.23;4.10;;;;;;;14.02;57.66;99410.16;5117207;27;20177;-91
2022/10/23 05:13:49;;;;;;;11.93;4.47;;;;;;;13.94;57.96;99408.00;5117413;27;20181;-91
2022/10/23 05:16:56;;;;;;;8.10;3.73;;;;;;;14.03;57.47;99412.72;5135180;27;20247;-91
2022/10/23 05:19:26;;;;;;;12.40;5.30;;;;;;;14.13;57.27;99415.59;5116978;27;20177;-91
2022/10/23 05:21:54;;;;;;;11.87;4.90;;;;;;;14.43;56.23;99420.78;5135342;27;20179;-91
2022/10/23 05:24:24;;;;;;;8.53;4.40;;;;;;;14.58;56.03;99422.44;5135308;27;20180;-91
2022/10/23 05:26:51;;;;;;;10.57;5.03;;;;;;;14.67;55.97;99427.13;5117116;27;20191;-91
2022/10/23 05:29:18;;;;;;;13.00;5.30;;;;;;;14.71;56.25;99423.31;5135241;27;20170;-91
2022/10/23 05:31:44;;;;;;;11.70;5.17;;;;;;;14.68;56.00;99426.16;5116723;27;20609;-91
2022/10/23 05:34:16;;;;;;;12.60;5.57;;;;;;;14.87;55.82;99428.44;5116682;27;20194;-91
2022/10/23 05:36:41;;;;;;;12.50;6.10;;;;;;;15.09;55.26;99431.38;5116885;27;20225;-91
2022/10/23 05:39:07;;;;;;;16.87;5.80;;;;;;;14.99;54.08;99433.78;5134768;27;20622;-91
2022/10/23 05:41:33;;;;;;;12.13;6.13;;;;;;;15.09;53.96;99419.03;5134726;27;20507;-90
2022/10/23 05:43:58;;;;;;;14.03;5.80;;;;;;;15.23;53.76;99431.31;5134984;27;20182;-91
2022/10/23 05:46:23;;;;;;;16.10;5.30;;;;;;;15.37;53.11;99439.16;5116852;27;20258;-91
2022/10/23 05:48:50;;;;;;;11.97;5.00;;;;;;;15.55;52.88;99443.22;5134616;27;20642;-91
2022/10/23 05:51:20;;;;;;;10.37;5.80;;;;;;;15.75;52.45;99439.22;5134680;27;20213;-91
2022/10/23 05:53:47;;;;;;;10.53;5.57;;;;;;;15.74;52.02;99437.53;5117250;27;20515;-91
2022/10/23 05:56:12;;;;;;;14.27;6.23;;;;;;;15.75;52.31;99445.34;5134366;27;20625;-92
2022/10/23 05:58:37;;;;;;;12.53;6.90;;;;;;;15.96;52.42;99445.66;5134421;27;20206;-91
2022/10/23 06:01:08;;;;;;;18.73;6.70;;;;;;;16.26;52.10;99440.88;5116625;27;20174;-91
2022/10/23 06:03:36;;;;;;;10.73;4.93;;;;;;;16.52;50.34;99434.59;5134487;27;20248;-91
2022/10/23 06:06:02;;;;;;;17.73;6.00;;;;;;;16.71;49.81;99436.75;5116248;27;20210;-92
2022/10/23 06:08:29;;;;;;;10.93;5.03;;;;;;;17.28;49.19;99430.75;5134325;27;20173;-92
2022/10/23 06:10:54;;;;;;;13.67;4.87;;;;;;;18.54;46.21;99438.53;5134253;27;20181;-92
2022/10/23 06:13:19;;;;;;;14.17;5.57;;;;;;;19.43;44.40;99432.94;5116959;27;20496;-92
2022/10/23 06:15:45;;;;;;;12.90;5.00;;;;;;;20.19;42.64;99429.88;5134179;27;20534;-92
2022/10/23 06:18:10;;;;;;;10.80;4.63;;;;;;;20.87;41.19;99428.25;5117075;28;20206;-92
2022/10/23 06:20:39;;;;;;;9.17;4.73;;;;;;;21.39;39.92;99427.88;5116051;27;20282;-92
2022/10/23 06:23:05;;;;;;;10.27;5.33;;;;;;;21.37;39.54;99420.03;5116297;27;20239;-92
2022/10/23 06:25:31;;;;;;;8.57;4.57;;;;;;;21.27;40.01;99427.22;5134367;27;20299;-92
2022/10/23 06:27:56;;;;;;;12.87;5.20;;;;;;;21.38;39.88;99431.56;5134086;27;20256;-92
2022/10/23 06:30:22;;;;;;;10.97;5.87;;;;;;;21.74;39.37;99428.13;5134055;28;20190;-92
2022/10/23 06:32:47;;;;;;;10.67;4.70;;;;;;;22.04;39.29;99445.75;5133983;28;20175;-92
2022/10/23 06:35:13;;;;;;;9.73;4.37;;;;;;;21.70;39.74;99448.06;5134021;28;20643;-92
2022/10/23 06:37:39;;;;;;;12.30;4.83;;;;;;;21.34;39.93;99462.97;5115803;28;20210;-93
2022/10/23 06:40:05;;;;;;;7.90;4.33;;;;;;;21.33;40.52;99455.97;5134015;28;20644;-92
2022/10/23 06:42:30;;;;;;;9.03;4.17;;;;;;;21.95;40.02;99465.31;5115822;28;20740;-92
2022/10/23 06:44:56;;;;;;;7.57;4.07;;;;;;;22.23;38.31;99461.72;5115780;28;20178;-91
2022/10/23 06:47:22;;;;;;;10.80;4.70;;;;;;;22.47;38.65;99453.19;5115865;28;20624;-92
2022/10/23 06:49:47;;;;;;;10.60;4.37;;;;;;;22.93;37.92;99460.28;5133857;28;20616;-92
2022/10/23 06:52:13;;;;;;;11.20;4.37;;;;;;;23.59;36.12;99456.25;5133701;28;20182;-93
2022/10/23 06:54:38;;;;;;;12.23;4.77;;;;;;;23.32;35.79;99450.97;5134006;28;20173;-91
2022/10/23 06:57:03;;;;;;;9.80;5.07;;;;;;;23.52;35.94;99452.50;5115877;28;20237;-89
2022/10/23 06:59:29;;;;;;;12.93;4.53;;;;;;;23.82;35.56;99446.72;5133689;28;20179;-90
2022/10/23 07:01:54;;;;;;;8.23;3.70;;;;;;;23.60;34.33;99455.25;5134249;27;20244;-89
2022/10/23 07:04:20;;;;;;;8.17;3.37;;;;;;;23.40;34.69;99475.13;5136755;27;20210;-87
2022/10/23 07:06:45;;;;;;;9.67;3.50;;;;;;;23.50;34.57;99459.88;5137699;27;20171;-88
2022/10/23 07:09:11;;;;;;;5.53;2.67;;;;;;;23.36;34.66;99468.41;5137620;27;20206;-87
2022/10/23 07:11:36;;;;;;;8.60;3.07;;;;;;;23.28;34.09;99471.00;5119520;27;20560;-88
2022/10/23 07:14:02;;;;;;;13.57;3.17;;;;;;;23.31;34.22;99467.16;5137585;27;20187;-89
2022/10/23 07:16:28;;;;;;;5.37;2.73;;;;;;;23.38;33.67;99465.59;5119299;27;20206;-89
2022/10/23 07:19:00;;;;;;;8.33;3.03;;;;;;;23.71;33.81;99456.84;5119361;27;20179;-86
2022/10/23 07:21:31;;;;;;;10.10;3.67;;;;;;;23.65;33.22;99462.81;5119935;27;20218;-88
2022/10/23 07:23:57;;;;;;;6.10;2.50;;;;;;;23.54;33.46;99461.22;5119599;27;20193;-91
2022/10/23 07:26:23;;;;;;;5.90;2.53;;;;;;;23.58;33.69;99456.41;5119489;27;20667;-90
2022/10/23 07:28:53;;;;;;;5.87;2.70;;;;;;;23.62;32.93;99461.28;5119201;27;20231;-88
2022/10/23 07:31:23;;;;;;;7.13;3.13;;;;;;;23.55;33.13;99460.25;5119512;27;20274;-86
2022/10/23 07:33:49;;;;;;;7.50;2.53;;;;;;;23.32;33.30;99461.69;5119392;27;20174;-86
2022/10/23 07:36:15;;;;;;;5.83;2.13;;;;;;;23.41;33.89;99458.09;5137080;27;20174;-87
2022/10/23 07:38:40;;;;;;;4.37;2.40;;;;;;;23.61;33.24;99456.09;5120062;27;20183;-87
2022/10/23 07:41:06;;;;;;;4.00;1.80;;;;;;;23.61;33.82;99458.78;5137372;27;20592;-87
2022/10/23 07:43:33;;;;;;;4.03;2.23;;;;;;;23.73;33.11;99447.66;5119411;27;20603;-85
2022/10/23 07:45:59;;;;;;;5.17;2.33;;;;;;;23.59;33.50;99453.56;5137003;27;20175;-88
2022/10/23 07:48:26;;;;;;;10.70;3.00;;;;;;;23.72;33.61;99454.00;5137208;27;20583;-88
2022/10/23 07:50:51;;;;;;;7.70;3.00;;;;;;;23.89;33.24;99451.44;5119158;27;20205;-86
2022/10/23 07:53:22;;;;;;;8.23;1.93;;;;;;;23.86;33.04;99441.91;5136860;27;20608;-87
2022/10/23 07:55:54;;;;;;;4.57;2.00;;;;;;;23.95;33.23;99448.16;5119531;27;20483;-87
2022/10/23 07:58:20;;;;;;;5.03;2.10;;;;;;;24.11;33.19;99456.31;5118631;27;20226;-87
2022/10/23 08:00:51;;;;;;;5.20;2.27;;;;;;;24.06;32.94;99458.56;5118559;27;20526;-86
2022/10/23 08:03:17;;;;;;;8.27;2.87;;;;;;;24.14;32.80;99455.97;5136998;27;20160;-87
2022/10/23 08:05:43;;;;;;;6.93;2.00;;;;;;;24.24;32.54;99454.88;5118493;27;20171;-87
2022/10/23 08:08:08;;;;;;;5.50;1.90;;;;;;;24.46;32.74;99453.47;5118793;27;20175;-88
2022/10/23 08:10:33;;;;;;;8.37;2.37;;;;;;;24.64;32.02;99446.16;5118788;27;20173;-87
2022/10/23 08:12:59;;;;;;;7.90;2.73;;;;;;;24.85;31.64;99454.66;5136540;27;20348;-87
2022/10/23 08:15:25;;;;;;;6.43;2.50;;;;;;;24.97;32.40;99458.69;5136879;27;20186;-87
2022/10/23 08:17:50;;;;;;;4.23;1.87;;;;;;;25.09;32.61;99456.56;5136575;27;20206;-87
2022/10/23 08:20:16;;;;;;;14.90;3.00;;;;;;;25.16;31.88;99446.03;5136648;27;20179;-86
2022/10/23 08:22:41;;;;;;;4.93;2.53;;;;;;;25.30;31.29;99439.97;5136514;27;20641;-87
2022/10/23 08:25:07;;;;;;;4.87;2.00;;;;;;;25.42;31.59;99441.34;5136235;27;20186;-87
2022/10/23 08:27:33;;;;;;;8.97;2.13;;;;;;;25.49;31.65;99443.22;5136143;27;20178;-87
2022/10/23 08:29:58;;;;;;;7.40;2.20;;;;;;;25.69;31.68;99448.22;5118023;27;20636;-88
2022/10/23 08:32:27;;;;;;;4.40;1.73;;;;;;;26.02;31.42;99439.94;5136320;27;20548;-87
2022/10/23 08:34:52;;;;;;;6.60;2.53;;;;;;;26.10;31.01;99431.06;5136011;27;20252;-86
2022/10/23 08:37:17;;;;;;;8.90;1.90;;;;;;;26.18;30.37;99433.72;5135897;27;20616;-86
2022/10/23 08:39:43;;;;;;;10.00;2.40;;;;;;;26.24;30.40;99443.78;5136261;27;20167;-87
2022/10/23 08:42:19;;;;;;;7.53;2.07;;;;;;;26.23;30.36;99451.00;5136152;27;20185;-88
2022/10/23 08:44:54;;;;;;;12.68;2.40;;;;;;;26.16;30.27;99451.88;5118046;27;20171;-91
2022/10/23 08:47:29;;;;;;;5.10;1.73;;;;;;;26.02;30.75;99450.69;5136321;27;20158;-87
2022/10/23 08:50:02;;;;;;;9.27;3.40;;;;;;;26.32;31.24;99446.47;5117727;27;20197;-88
2022/10/23 08:52:45;;;;;;;8.02;2.65;;;;;;;26.40;31.01;99450.97;5135615;27;20712;-84
2022/10/23 08:55:32;;;;;;;7.83;2.63;;;;;;;26.26;31.16;99457.09;5136168;27;20619;-88
2022/10/23 08:58:02;;;;;;;5.80;2.47;;;;;;;26.46;31.08;99461.03;5135778;27;20187;-87
2022/10/23 09:00:28;;;;;;;6.20;2.63;;;;;;;26.34;30.67;99447.13;5135566;27;20163;-87
2022/10/23 09:02:55;;;;;;;7.53;2.67;;;;;;;26.59;31.14;99453.25;5135458;27;20231;-87
2022/10/23 09:05:29;;;;;;;5.18;2.45;;;;;;;27.06;30.55;99456.75;5117543;27;20682;-87
2022/10/23 09:08:30;;;;;;;6.57;2.00;;;;;;;27.22;30.28;99440.50;5135368;27;20159;-85
2022/10/23 09:11:10;;;;;;;7.90;2.63;;;;;;;26.96;30.31;99455.28;5053249;28;20213;-86
2022/10/23 09:14:12;;;;;;;11.38;2.53;;;;;;;27.09;30.97;99447.47;5126288;27;20194;-86
2022/10/23 09:16:57;;;;;;;5.45;2.20;;;;;;;27.50;30.64;99440.78;5135385;27;20202;-87
2022/10/23 09:19:26;;;;;;;7.75;1.75;;;;;;;27.59;29.98;99438.88;5116988;27;20231;-88
2022/10/23 09:21:53;;;;;;;7.20;2.85;;;;;;;27.62;29.81;99435.81;5135335;27;20190;-88
2022/10/23 09:24:22;;;;;;;4.07;2.10;;;;;;;27.54;30.29;99427.81;5135072;27;20182;-87
2022/10/23 09:26:49;;;;;;;9.13;2.20;;;;;;;27.83;29.94;99435.97;5134496;27;20168;-87
2022/10/23 09:29:27;;;;;;;11.70;5.40;;;;;;;27.94;29.96;99433.66;5134951;27;20628;-89
2022/10/23 09:31:56;;;;;;;149.88;67.90;;;;;;;28.00;30.15;99432.06;5135229;27;20159;-89
2022/10/23 09:34:24;;;;;;;26.85;12.88;;;;;;;27.69;30.16;99431.38;5134846;27;20186;-85
2022/10/23 09:37:21;;;;;;;10.93;3.72;;;;;;;27.87;29.97;99424.63;5134749;27;20207;-86
2022/10/23 09:39:46;;;;;;;15.65;7.57;;;;;;;27.84;30.38;99416.06;5133704;27;20202;-86
2022/10/23 09:42:24;;;;;;;17.27;5.80;;;;;;;27.95;30.89;99418.31;5117025;27;20179;-88
2022/10/23 09:44:53;;;;;;;13.30;2.45;;;;;;;27.74;30.47;99423.59;5116884;27;20631;-86
2022/10/23 09:47:21;;;;;;;9.32;2.55;;;;;;;28.00;30.27;99418.59;5117010;27;20171;-89
2022/10/23 09:49:50;;;;;;;9.15;3.15;;;;;;;28.10;30.12;99408.41;5134568;27;20320;-88
2022/10/23 09:52:15;;;;;;;4.72;2.22;;;;;;;28.15;30.20;99416.78;5134605;27;20216;-88
2022/10/23 09:54:45;;;;;;;5.35;1.98;;;;;;;28.48;29.64;99420.78;5134479;27;20246;-87
2022/10/23 09:57:16;;;;;;;9.88;1.88;;;;;;;28.36;29.53;99406.06;5116294;27;20553;-87
2022/10/23 09:59:42;;;;;;;5.60;2.42;;;;;;;28.32;29.25;99412.88;5134442;27;20596;-87
2022/10/23 10:02:20;;;;;;;4.65;1.42;;;;;;;28.10;29.78;99404.88;5134629;27;20648;-86
2022/10/23 10:04:45;;;;;;;6.32;3.30;;;;;;;28.59;29.70;99414.03;5116294;27;20171;-86
2022/10/23 10:07:20;;;;;;;5.22;1.65;;;;;;;28.84;28.98;99411.88;5117312;27;20178;-87
2022/10/23 10:09:46;;;;;;;8.82;1.88;;;;;;;28.58;28.75;99406.97;5116213;27;20174;-87
2022/10/23 10:12:48;;;;;;;3.10;1.30;;;;;;;28.42;29.03;99404.50;5134808;27;20279;-85
2022/10/23 10:15:30;;;;;;;4.57;1.50;;;;;;;28.53;28.78;99404.84;5117204;27;20167;-87
2022/10/23 10:18:18;;;;;;;13.13;2.47;;;;;;;28.50;29.35;99399.84;5116651;27;20214;-85
2022/10/23 10:20:56;;;;;;;5.03;1.63;;;;;;;28.66;29.06;99403.38;5134700;27;20172;-87
2022/10/23 10:23:31;;;;;;;4.82;1.67;;;;;;;28.59;29.06;99400.53;5116593;27;20174;-85
2022/10/23 10:26:14;;;;;;;9.98;2.28;;;;;;;28.52;29.64;99403.19;5116003;27;20189;-88
2022/10/23 10:28:45;;;;;;;7.57;1.65;;;;;;;28.49;29.50;99387.38;5116022;27;20170;-86
2022/10/23 10:31:17;;;;;;;3.90;1.85;;;;;;;28.64;28.96;99396.28;5116189;28;20707;-86
2022/10/23 10:34:04;;;;;;;3.70;0.88;;;;;;;28.77;28.75;99392.09;5116676;28;20235;-86
2022/10/23 10:36:53;;;;;;;3.33;1.35;;;;;;;29.08;28.00;99398.88;5115785;28;20206;-86
2022/10/23 10:40:01;;;;;;;4.40;2.15;;;;;;;29.08;28.48;99381.84;5137485;27;20217;-86
2022/10/23 10:43:00;;;;;;;6.32;1.98;;;;;;;29.53;28.14;99375.22;5109167;27;20628;-88
2022/10/23 10:45:28;;;;;;;3.92;1.60;;;;;;;29.72;27.32;99371.81;5120587;27;20186;-89
2022/10/23 10:48:15;;;;;;;4.78;1.33;;;;;;;29.61;27.34;99383.97;5120016;27;20584;-87
2022/10/23 10:50:56;;;;;;;4.88;1.73;;;;;;;29.18;27.81;99387.75;5119975;27;20682;-86
2022/10/23 10:53:39;;;;;;;3.53;0.93;;;;;;;29.14;27.78;99372.97;5138545;27;20193;-86
2022/10/23 10:56:10;;;;;;;8.13;1.13;;;;;;;29.18;27.41;99366.97;5138234;27;20166;-87
2022/10/23 10:58:52;;;;;;;2.63;1.30;;;;;;;29.51;26.71;99374.53;5137963;27;20159;-86
2022/10/23 11:01:49;;;;;;;4.32;1.30;;;;;;;29.81;26.21;99368.81;5138501;27;20163;-87
2022/10/23 11:04:39;;;;;;;1.73;0.80;;;;;;;29.70;26.20;99363.06;5118709;27;20198;-88
2022/10/23 11:07:10;;;;;;;2.05;0.90;;;;;;;29.88;26.10;99371.53;5138042;27;20156;-88
2022/10/23 11:09:38;;;;;;;3.08;1.58;;;;;;;30.05;25.75;99362.09;5138297;27;20155;-88
2022/10/23 11:12:03;;;;;;;3.03;1.10;;;;;;;30.07;25.63;99351.06;5137633;27;20635;-86
2022/10/23 11:14:32;;;;;;;2.97;1.42;;;;;;;29.52;26.16;99357.31;5137668;27;20175;-86
2022/10/23 11:17:17;;;;;;;3.17;0.82;;;;;;;29.72;26.19;99358.28;5119587;27;20619;-87
2022/10/23 11:19:48;;;;;;;3.20;1.10;;;;;;;30.04;25.69;99346.88;5137827;27;20163;-86
2022/10/23 11:22:34;;;;;;;4.95;1.10;;;;;;;30.06;25.51;99358.31;5120207;27;20179;-87
2022/10/23 11:25:11;;;;;;;3.83;1.10;;;;;;;30.10;24.78;99362.31;5137737;27;20191;-88
2022/10/23 11:28:05;;;;;;;2.95;1.13;;;;;;;30.33;24.56;99351.19;5137726;27;20165;-89
2022/10/23 11:31:12;;;;;;;4.45;0.93;;;;;;;30.39;25.12;99353.13;5120061;27;20186;-86
2022/10/23 11:33:58;;;;;;;8.27;1.02;;;;;;;30.20;24.62;99349.25;5119174;27;20171;-84
2022/10/23 11:36:37;;;;;;;4.43;1.98;;;;;;;30.38;25.16;99346.03;5119871;27;20284;-86
2022/10/23 11:39:16;;;;;;;2.67;0.93;;;;;;;30.51;24.22;99348.78;5137455;27;20242;-87
2022/10/23 11:42:03;;;;;;;8.02;1.10;;;;;;;30.21;24.74;99342.81;5137371;27;20589;-87
2022/10/23 11:44:35;;;;;;;7.13;1.00;;;;;;;30.42;24.58;99350.03;5119230;27;20258;-88
2022/10/23 11:47:05;;;;;;;3.80;0.75;;;;;;;30.36;24.71;99331.88;5119135;27;20543;-84
2022/10/23 11:49:31;;;;;;;3.80;0.85;;;;;;;30.35;24.79;99324.75;5118948;27;20179;-87